sensor_id;sensor_type;location;lat;lon;timestamp;P1;durP1;ratioP1;P2;durP2;ratioP2
40931;SDS011;36257;46.052;12.540;2022-11-11T00:00:26;3.60;;;0.90;;
40931;SDS011;36257;46.052;12.540;2022-11-11T00:02:53;1.00;;;1.00;;
40931;SDS011;36257;46.052;12.540;2022-11-11T00:05:20;0.88;;;0.88;;
40931;SDS011;36257;46.052;12.540;2022-11-11T00:07:46;0.90;;;0.90;;
40931;SDS011;36257;46.052;12.540;2022-11-11T00:10:12;0.77;;;0.77;;
40931;SDS011;36257;46.052;12.540;2022-11-11T00:12:38;2.13;;;0.70;;
40931;SDS011;36257;46.052;12.540;2022-11-11T00:15:04;0.90;;;0.90;;
40931;SDS011;36257;46.052;12.540;2022-11-11T00:17:30;0.80;;;0.80;;
40931;SDS011;36257;46.052;12.540;2022-11-11T00:20:14;0.63;;;0.63;;
40931;SDS011;36257;46.052;12.540;2022-11-11T00:22:58;0.80;;;0.80;;
40931;SDS011;36257;46.052;12.540;2022-11-11T00:25:42;0.80;;;0.80;;
40931;SDS011;36257;46.052;12.540;2022-11-11T00:28:07;1.08;;;0.98;;
40931;SDS011;36257;46.052;12.540;2022-11-11T00:30:33;0.80;;;0.80;;
40931;SDS011;36257;46.052;12.540;2022-11-11T00:32:59;0.80;;;0.80;;
40931;SDS011;36257;46.052;12.540;2022-11-11T00:35:24;0.80;;;0.80;;
40931;SDS011;36257;46.052;12.540;2022-11-11T00:38:09;2.15;;;0.88;;
40931;SDS011;36257;46.052;12.540;2022-11-11T00:40:57;1.50;;;1.00;;
40931;SDS011;36257;46.052;12.540;2022-11-11T00:43:23;2.65;;;1.00;;
40931;SDS011;36257;46.052;12.540;2022-11-11T00:45:49;1.77;;;1.15;;
40931;SDS011;36257;46.052;12.540;2022-11-11T00:48:14;0.90;;;0.90;;
40931;SDS011;36257;46.052;12.540;2022-11-11T00:50:58;1.45;;;1.17;;
40931;SDS011;36257;46.052;12.540;2022-11-11T00:53:25;1.88;;;0.90;;
40931;SDS011;36257;46.052;12.540;2022-11-11T00:55:53;1.13;;;1.10;;
40931;SDS011;36257;46.052;12.540;2022-11-11T00:58:19;0.90;;;0.90;;
40931;SDS011;36257;46.052;12.540;2022-11-11T01:00:46;1.02;;;1.02;;
40931;SDS011;36257;46.052;12.540;2022-11-11T01:03:14;0.70;;;0.70;;
40931;SDS011;36257;46.052;12.540;2022-11-11T01:05:40;1.10;;;1.10;;
40931;SDS011;36257;46.052;12.540;2022-11-11T01:08:06;1.20;;;1.08;;
40931;SDS011;36257;46.052;12.540;2022-11-11T01:10:32;1.00;;;1.00;;
40931;SDS011;36257;46.052;12.540;2022-11-11T01:13:04;0.88;;;0.88;;
40931;SDS011;36257;46.052;12.540;2022-11-11T01:15:41;0.70;;;0.70;;
40931;SDS011;36257;46.052;12.540;2022-11-11T01:18:09;0.77;;;0.77;;
40931;SDS011;36257;46.052;12.540;2022-11-11T01:20:36;1.30;;;1.00;;
40931;SDS011;36257;46.052;12.540;2022-11-11T01:23:06;1.00;;;1.00;;
40931;SDS011;36257;46.052;12.540;2022-11-11T01:25:33;0.70;;;0.70;;
40931;SDS011;36257;46.052;12.540;2022-11-11T01:28:00;1.10;;;1.10;;
40931;SDS011;36257;46.052;12.540;2022-11-11T01:30:26;0.90;;;0.90;;
40931;SDS011;36257;46.052;12.540;2022-11-11T01:32:52;1.33;;;0.98;;
40931;SDS011;36257;46.052;12.540;2022-11-11T01:35:18;0.80;;;0.80;;
40931;SDS011;36257;46.052;12.540;2022-11-11T01:37:43;1.00;;;1.00;;
40931;SDS011;36257;46.052;12.540;2022-11-11T01:40:09;0.80;;;0.80;;
40931;SDS011;36257;46.052;12.540;2022-11-11T01:42:48;0.80;;;0.80;;
40931;SDS011;36257;46.052;12.540;2022-11-11T01:48:29;1.30;;;1.20;;
40931;SDS011;36257;46.052;12.540;2022-11-11T01:51:36;1.00;;;1.00;;
40931;SDS011;36257;46.052;12.540;2022-11-11T01:54:03;0.85;;;0.85;;
40931;SDS011;36257;46.052;12.540;2022-11-11T01:56:34;1.20;;;1.13;;
40931;SDS011;36257;46.052;12.540;2022-11-11T01:59:02;0.80;;;0.80;;
40931;SDS011;36257;46.052;12.540;2022-11-11T02:01:33;1.67;;;0.82;;
40931;SDS011;36257;46.052;12.540;2022-11-11T02:04:00;1.00;;;1.00;;
40931;SDS011;36257;46.052;12.540;2022-11-11T02:06:51;1.08;;;0.98;;
40931;SDS011;36257;46.052;12.540;2022-11-11T02:09:20;2.17;;;0.90;;
40931;SDS011;36257;46.052;12.540;2022-11-11T02:11:48;0.90;;;0.90;;
40931;SDS011;36257;46.052;12.540;2022-11-11T02:14:36;0.85;;;0.85;;
40931;SDS011;36257;46.052;12.540;2022-11-11T02:17:08;3.42;;;1.15;;
40931;SDS011;36257;46.052;12.540;2022-11-11T02:25:10;1.50;;;1.10;;
40931;SDS011;36257;46.052;12.540;2022-11-11T02:27:41;0.90;;;0.90;;
40931;SDS011;36257;46.052;12.540;2022-11-11T02:30:09;0.77;;;0.77;;
40931;SDS011;36257;46.052;12.540;2022-11-11T02:32:43;0.93;;;0.93;;
40931;SDS011;36257;46.052;12.540;2022-11-11T02:35:12;0.98;;;0.98;;
40931;SDS011;36257;46.052;12.540;2022-11-11T02:37:40;0.80;;;0.80;;
40931;SDS011;36257;46.052;12.540;2022-11-11T02:40:09;1.20;;;1.10;;
40931;SDS011;36257;46.052;12.540;2022-11-11T02:42:38;0.80;;;0.80;;
40931;SDS011;36257;46.052;12.540;2022-11-11T02:45:03;0.90;;;0.90;;
40931;SDS011;36257;46.052;12.540;2022-11-11T02:47:29;0.80;;;0.80;;
40931;SDS011;36257;46.052;12.540;2022-11-11T02:49:55;0.90;;;0.90;;
40931;SDS011;36257;46.052;12.540;2022-11-11T02:52:21;0.93;;;0.93;;
40931;SDS011;36257;46.052;12.540;2022-11-11T02:54:46;2.20;;;0.80;;
40931;SDS011;36257;46.052;12.540;2022-11-11T02:57:13;1.00;;;1.00;;
40931;SDS011;36257;46.052;12.540;2022-11-11T02:59:39;1.00;;;1.00;;
40931;SDS011;36257;46.052;12.540;2022-11-11T03:02:05;1.13;;;1.13;;
40931;SDS011;36257;46.052;12.540;2022-11-11T03:04:32;1.05;;;1.05;;
40931;SDS011;36257;46.052;12.540;2022-11-11T03:06:58;1.13;;;1.02;;
40931;SDS011;36257;46.052;12.540;2022-11-11T03:09:24;1.10;;;1.10;;
40931;SDS011;36257;46.052;12.540;2022-11-11T03:11:50;1.15;;;1.08;;
40931;SDS011;36257;46.052;12.540;2022-11-11T03:14:16;1.38;;;1.27;;
40931;SDS011;36257;46.052;12.540;2022-11-11T03:16:42;1.27;;;1.27;;
40931;SDS011;36257;46.052;12.540;2022-11-11T03:19:28;1.13;;;1.13;;
40931;SDS011;36257;46.052;12.540;2022-11-11T03:21:54;0.90;;;0.90;;
40931;SDS011;36257;46.052;12.540;2022-11-11T03:24:20;1.85;;;1.30;;
40931;SDS011;36257;46.052;12.540;2022-11-11T03:26:46;1.42;;;1.33;;
40931;SDS011;36257;46.052;12.540;2022-11-11T03:29:12;2.25;;;1.27;;
40931;SDS011;36257;46.052;12.540;2022-11-11T03:31:37;1.17;;;1.02;;
40931;SDS011;36257;46.052;12.540;2022-11-11T03:34:03;1.23;;;1.20;;
40931;SDS011;36257;46.052;12.540;2022-11-11T03:36:44;1.25;;;1.23;;
40931;SDS011;36257;46.052;12.540;2022-11-11T03:39:28;2.35;;;1.50;;
40931;SDS011;36257;46.052;12.540;2022-11-11T03:41:54;1.20;;;1.20;;
40931;SDS011;36257;46.052;12.540;2022-11-11T03:44:20;2.05;;;1.10;;
40931;SDS011;36257;46.052;12.540;2022-11-11T03:46:46;3.08;;;1.45;;
40931;SDS011;36257;46.052;12.540;2022-11-11T03:49:12;1.38;;;1.13;;
40931;SDS011;36257;46.052;12.540;2022-11-11T03:51:37;0.98;;;0.98;;
40931;SDS011;36257;46.052;12.540;2022-11-11T03:54:03;1.30;;;1.30;;
40931;SDS011;36257;46.052;12.540;2022-11-11T03:56:28;1.30;;;1.20;;
40931;SDS011;36257;46.052;12.540;2022-11-11T03:58:54;1.77;;;1.10;;
40931;SDS011;36257;46.052;12.540;2022-11-11T04:01:20;1.30;;;1.30;;
40931;SDS011;36257;46.052;12.540;2022-11-11T04:04:04;1.15;;;1.10;;
40931;SDS011;36257;46.052;12.540;2022-11-11T04:06:47;1.10;;;1.10;;
40931;SDS011;36257;46.052;12.540;2022-11-11T04:09:32;1.17;;;1.17;;
40931;SDS011;36257;46.052;12.540;2022-11-11T04:12:16;1.35;;;1.35;;
40931;SDS011;36257;46.052;12.540;2022-11-11T04:14:41;1.20;;;1.20;;
40931;SDS011;36257;46.052;12.540;2022-11-11T04:17:25;2.95;;;1.10;;
40931;SDS011;36257;46.052;12.540;2022-11-11T04:19:51;1.30;;;1.20;;
40931;SDS011;36257;46.052;12.540;2022-11-11T04:22:41;1.00;;;1.00;;
40931;SDS011;36257;46.052;12.540;2022-11-11T04:25:07;1.10;;;1.10;;
40931;SDS011;36257;46.052;12.540;2022-11-11T04:27:51;1.00;;;1.00;;
40931;SDS011;36257;46.052;12.540;2022-11-11T04:30:40;2.35;;;1.20;;
40931;SDS011;36257;46.052;12.540;2022-11-11T04:33:06;1.73;;;1.10;;
40931;SDS011;36257;46.052;12.540;2022-11-11T04:35:32;1.10;;;1.10;;
40931;SDS011;36257;46.052;12.540;2022-11-11T04:37:57;1.67;;;1.00;;
40931;SDS011;36257;46.052;12.540;2022-11-11T04:40:43;1.17;;;1.17;;
40931;SDS011;36257;46.052;12.540;2022-11-11T04:43:28;1.80;;;1.10;;
40931;SDS011;36257;46.052;12.540;2022-11-11T04:46:16;1.05;;;1.05;;
40931;SDS011;36257;46.052;12.540;2022-11-11T04:48:42;7.32;;;1.23;;
40931;SDS011;36257;46.052;12.540;2022-11-11T04:51:08;1.25;;;1.20;;
40931;SDS011;36257;46.052;12.540;2022-11-11T04:53:33;2.50;;;2.30;;
40931;SDS011;36257;46.052;12.540;2022-11-11T04:55:59;2.63;;;2.42;;
40931;SDS011;36257;46.052;12.540;2022-11-11T04:58:43;2.22;;;1.75;;
40931;SDS011;36257;46.052;12.540;2022-11-11T05:01:10;1.85;;;1.75;;
40931;SDS011;36257;46.052;12.540;2022-11-11T05:03:56;1.83;;;1.70;;
40931;SDS011;36257;46.052;12.540;2022-11-11T05:06:21;1.55;;;1.45;;
40931;SDS011;36257;46.052;12.540;2022-11-11T05:09:05;1.50;;;1.48;;
40931;SDS011;36257;46.052;12.540;2022-11-11T05:11:32;1.60;;;1.50;;
40931;SDS011;36257;46.052;12.540;2022-11-11T05:19:29;2.65;;;2.45;;
40931;SDS011;36257;46.052;12.540;2022-11-11T05:25:00;2.72;;;2.00;;
40931;SDS011;36257;46.052;12.540;2022-11-11T05:27:44;4.13;;;1.55;;
40931;SDS011;36257;46.052;12.540;2022-11-11T05:30:11;2.05;;;1.95;;
40931;SDS011;36257;46.052;12.540;2022-11-11T05:35:03;1.60;;;1.50;;
40931;SDS011;36257;46.052;12.540;2022-11-11T05:37:30;2.08;;;1.98;;
40931;SDS011;36257;46.052;12.540;2022-11-11T05:39:56;2.78;;;1.70;;
40931;SDS011;36257;46.052;12.540;2022-11-11T05:42:21;4.97;;;2.03;;
40931;SDS011;36257;46.052;12.540;2022-11-11T05:44:47;1.55;;;1.45;;
40931;SDS011;36257;46.052;12.540;2022-11-11T05:47:13;2.25;;;1.60;;
40931;SDS011;36257;46.052;12.540;2022-11-11T05:49:39;1.75;;;1.50;;
40931;SDS011;36257;46.052;12.540;2022-11-11T05:52:05;1.27;;;1.25;;
40931;SDS011;36257;46.052;12.540;2022-11-11T05:54:31;2.87;;;1.83;;
40931;SDS011;36257;46.052;12.540;2022-11-11T05:56:57;1.92;;;1.83;;
40931;SDS011;36257;46.052;12.540;2022-11-11T05:59:24;2.22;;;1.88;;
40931;SDS011;36257;46.052;12.540;2022-11-11T06:01:50;1.98;;;1.88;;
40931;SDS011;36257;46.052;12.540;2022-11-11T06:04:16;2.97;;;2.22;;
40931;SDS011;36257;46.052;12.540;2022-11-11T06:06:41;1.60;;;1.50;;
40931;SDS011;36257;46.052;12.540;2022-11-11T06:09:07;1.88;;;1.77;;
40931;SDS011;36257;46.052;12.540;2022-11-11T06:11:33;1.33;;;1.33;;
40931;SDS011;36257;46.052;12.540;2022-11-11T06:13:59;1.75;;;1.65;;
40931;SDS011;36257;46.052;12.540;2022-11-11T06:16:24;1.65;;;1.60;;
40931;SDS011;36257;46.052;12.540;2022-11-11T06:18:50;1.40;;;1.40;;
40931;SDS011;36257;46.052;12.540;2022-11-11T06:21:16;1.48;;;1.38;;
40931;SDS011;36257;46.052;12.540;2022-11-11T06:23:45;3.13;;;1.25;;
40931;SDS011;36257;46.052;12.540;2022-11-11T06:26:11;1.67;;;1.58;;
40931;SDS011;36257;46.052;12.540;2022-11-11T06:28:38;2.75;;;2.53;;
40931;SDS011;36257;46.052;12.540;2022-11-11T06:31:13;4.45;;;4.05;;
40931;SDS011;36257;46.052;12.540;2022-11-11T06:33:41;4.03;;;3.63;;
40931;SDS011;36257;46.052;12.540;2022-11-11T06:36:07;3.40;;;3.05;;
40931;SDS011;36257;46.052;12.540;2022-11-11T06:41:00;2.08;;;1.98;;
40931;SDS011;36257;46.052;12.540;2022-11-11T06:43:26;4.28;;;2.15;;
40931;SDS011;36257;46.052;12.540;2022-11-11T06:45:52;1.90;;;1.80;;
40931;SDS011;36257;46.052;12.540;2022-11-11T06:48:19;1.75;;;1.65;;
40931;SDS011;36257;46.052;12.540;2022-11-11T06:50:46;1.60;;;1.50;;
40931;SDS011;36257;46.052;12.540;2022-11-11T06:53:13;3.15;;;2.22;;
40931;SDS011;36257;46.052;12.540;2022-11-11T06:55:40;1.60;;;1.50;;
40931;SDS011;36257;46.052;12.540;2022-11-11T06:58:10;3.15;;;2.47;;
40931;SDS011;36257;46.052;12.540;2022-11-11T07:00:40;2.47;;;2.25;;
40931;SDS011;36257;46.052;12.540;2022-11-11T07:03:06;3.22;;;2.92;;
40931;SDS011;36257;46.052;12.540;2022-11-11T07:05:34;3.95;;;3.55;;
40931;SDS011;36257;46.052;12.540;2022-11-11T07:08:04;4.38;;;3.38;;
40931;SDS011;36257;46.052;12.540;2022-11-11T07:10:34;9.48;;;4.40;;
40931;SDS011;36257;46.052;12.540;2022-11-11T07:13:02;4.63;;;3.35;;
40931;SDS011;36257;46.052;12.540;2022-11-11T07:15:28;3.65;;;3.25;;
40931;SDS011;36257;46.052;12.540;2022-11-11T07:17:54;3.45;;;3.15;;
40931;SDS011;36257;46.052;12.540;2022-11-11T07:20:20;7.65;;;3.00;;
40931;SDS011;36257;46.052;12.540;2022-11-11T07:22:46;2.50;;;2.30;;
40931;SDS011;36257;46.052;12.540;2022-11-11T07:25:12;3.03;;;2.60;;
40931;SDS011;36257;46.052;12.540;2022-11-11T07:27:40;2.88;;;2.60;;
40931;SDS011;36257;46.052;12.540;2022-11-11T07:30:06;2.83;;;2.25;;
40931;SDS011;36257;46.052;12.540;2022-11-11T07:32:33;3.97;;;2.17;;
40931;SDS011;36257;46.052;12.540;2022-11-11T07:34:59;1.90;;;1.80;;
40931;SDS011;36257;46.052;12.540;2022-11-11T07:37:25;1.95;;;1.85;;
40931;SDS011;36257;46.052;12.540;2022-11-11T07:39:50;2.05;;;1.88;;
40931;SDS011;36257;46.052;12.540;2022-11-11T07:42:16;2.30;;;2.10;;
40931;SDS011;36257;46.052;12.540;2022-11-11T07:44:42;1.90;;;1.80;;
40931;SDS011;36257;46.052;12.540;2022-11-11T07:47:08;1.83;;;1.70;;
40931;SDS011;36257;46.052;12.540;2022-11-11T07:49:34;2.13;;;2.00;;
40931;SDS011;36257;46.052;12.540;2022-11-11T07:52:00;2.20;;;2.10;;
40931;SDS011;36257;46.052;12.540;2022-11-11T07:54:25;1.90;;;1.50;;
40931;SDS011;36257;46.052;12.540;2022-11-11T07:56:51;2.40;;;2.20;;
40931;SDS011;36257;46.052;12.540;2022-11-11T07:59:17;2.00;;;1.90;;
40931;SDS011;36257;46.052;12.540;2022-11-11T08:01:43;5.20;;;2.85;;
40931;SDS011;36257;46.052;12.540;2022-11-11T08:04:08;2.90;;;1.60;;
40931;SDS011;36257;46.052;12.540;2022-11-11T08:06:34;1.50;;;1.40;;
40931;SDS011;36257;46.052;12.540;2022-11-11T08:09:00;1.33;;;1.23;;
40931;SDS011;36257;46.052;12.540;2022-11-11T08:11:25;2.60;;;1.40;;
40931;SDS011;36257;46.052;12.540;2022-11-11T08:14:09;1.20;;;1.10;;
40931;SDS011;36257;46.052;12.540;2022-11-11T08:16:35;1.10;;;1.10;;
40931;SDS011;36257;46.052;12.540;2022-11-11T08:19:00;1.30;;;1.20;;
40931;SDS011;36257;46.052;12.540;2022-11-11T08:21:26;0.60;;;0.60;;
40931;SDS011;36257;46.052;12.540;2022-11-11T08:23:52;1.00;;;0.90;;
40931;SDS011;36257;46.052;12.540;2022-11-11T08:26:19;1.27;;;1.00;;
40931;SDS011;36257;46.052;12.540;2022-11-11T08:28:46;0.95;;;0.82;;
40931;SDS011;36257;46.052;12.540;2022-11-11T08:31:12;1.27;;;0.90;;
40931;SDS011;36257;46.052;12.540;2022-11-11T08:33:38;1.20;;;1.10;;
40931;SDS011;36257;46.052;12.540;2022-11-11T08:36:04;1.83;;;1.58;;
40931;SDS011;36257;46.052;12.540;2022-11-11T08:38:31;3.20;;;1.70;;
40931;SDS011;36257;46.052;12.540;2022-11-11T08:40:59;1.88;;;1.50;;
40931;SDS011;36257;46.052;12.540;2022-11-11T08:43:25;1.92;;;1.77;;
40931;SDS011;36257;46.052;12.540;2022-11-11T08:45:51;1.65;;;1.50;;
40931;SDS011;36257;46.052;12.540;2022-11-11T08:48:18;3.33;;;1.95;;
40931;SDS011;36257;46.052;12.540;2022-11-11T08:50:43;3.40;;;1.77;;
40931;SDS011;36257;46.052;12.540;2022-11-11T08:53:09;2.90;;;1.52;;
40931;SDS011;36257;46.052;12.540;2022-11-11T08:55:35;4.57;;;1.80;;
40931;SDS011;36257;46.052;12.540;2022-11-11T08:58:03;2.58;;;1.85;;
40931;SDS011;36257;46.052;12.540;2022-11-11T09:00:31;3.45;;;1.52;;
40931;SDS011;36257;46.052;12.540;2022-11-11T09:03:05;3.30;;;2.83;;
40931;SDS011;36257;46.052;12.540;2022-11-11T09:05:33;3.92;;;2.90;;
40931;SDS011;36257;46.052;12.540;2022-11-11T09:08:02;3.55;;;2.50;;
40931;SDS011;36257;46.052;12.540;2022-11-11T09:10:32;4.60;;;2.45;;
40931;SDS011;36257;46.052;12.540;2022-11-11T09:12:59;5.03;;;2.40;;
40931;SDS011;36257;46.052;12.540;2022-11-11T09:15:25;4.15;;;2.20;;
40931;SDS011;36257;46.052;12.540;2022-11-11T09:17:51;5.05;;;1.88;;
40931;SDS011;36257;46.052;12.540;2022-11-11T09:20:17;3.28;;;2.25;;
40931;SDS011;36257;46.052;12.540;2022-11-11T09:22:44;3.17;;;2.72;;
40931;SDS011;36257;46.052;12.540;2022-11-11T09:25:11;4.30;;;2.78;;
40931;SDS011;36257;46.052;12.540;2022-11-11T09:27:37;3.80;;;2.50;;
40931;SDS011;36257;46.052;12.540;2022-11-11T09:30:03;2.88;;;2.38;;
40931;SDS011;36257;46.052;12.540;2022-11-11T09:32:30;4.03;;;2.05;;
40931;SDS011;36257;46.052;12.540;2022-11-11T09:34:56;3.15;;;1.70;;
40931;SDS011;36257;46.052;12.540;2022-11-11T09:37:22;2.75;;;1.88;;
40931;SDS011;36257;46.052;12.540;2022-11-11T09:39:47;1.77;;;1.33;;
40931;SDS011;36257;46.052;12.540;2022-11-11T09:50:12;6.45;;;2.70;;
40931;SDS011;36257;46.052;12.540;2022-11-11T09:52:45;2.03;;;1.73;;
40931;SDS011;36257;46.052;12.540;2022-11-11T09:55:18;1.83;;;1.73;;
40931;SDS011;36257;46.052;12.540;2022-11-11T09:57:52;2.92;;;1.90;;
40931;SDS011;36257;46.052;12.540;2022-11-11T10:00:28;1.85;;;1.75;;
40931;SDS011;36257;46.052;12.540;2022-11-11T10:05:59;1.88;;;1.70;;
40931;SDS011;36257;46.052;12.540;2022-11-11T10:08:34;2.15;;;1.70;;
40931;SDS011;36257;46.052;12.540;2022-11-11T10:11:10;2.50;;;2.10;;
40931;SDS011;36257;46.052;12.540;2022-11-11T10:13:40;2.38;;;2.17;;
40931;SDS011;36257;46.052;12.540;2022-11-11T10:22:12;1.60;;;1.40;;
40931;SDS011;36257;46.052;12.540;2022-11-11T10:24:31;2.35;;;1.33;;
40931;SDS011;36257;46.052;12.540;2022-11-11T10:27:00;1.70;;;1.45;;
40931;SDS011;36257;46.052;12.540;2022-11-11T10:29:30;1.65;;;1.25;;
40931;SDS011;36257;46.052;12.540;2022-11-11T10:32:08;2.97;;;1.90;;
40931;SDS011;36257;46.052;12.540;2022-11-11T10:34:37;2.15;;;1.67;;
40931;SDS011;36257;46.052;12.540;2022-11-11T10:37:08;3.88;;;2.83;;
40931;SDS011;36257;46.052;12.540;2022-11-11T10:42:30;3.80;;;2.78;;
40931;SDS011;36257;46.052;12.540;2022-11-11T10:44:59;3.45;;;2.78;;
40931;SDS011;36257;46.052;12.540;2022-11-11T10:47:43;3.40;;;2.38;;
40931;SDS011;36257;46.052;12.540;2022-11-11T10:52:53;2.10;;;1.70;;
40931;SDS011;36257;46.052;12.540;2022-11-11T10:55:34;1.75;;;1.65;;
40931;SDS011;36257;46.052;12.540;2022-11-11T10:58:11;3.28;;;2.00;;
40931;SDS011;36257;46.052;12.540;2022-11-11T11:00:50;2.33;;;1.55;;
40931;SDS011;36257;46.052;12.540;2022-11-11T11:03:21;2.13;;;1.83;;
40931;SDS011;36257;46.052;12.540;2022-11-11T11:06:02;1.67;;;1.58;;
40931;SDS011;36257;46.052;12.540;2022-11-11T11:08:51;2.40;;;1.90;;
40931;SDS011;36257;46.052;12.540;2022-11-11T11:11:24;3.03;;;2.20;;
40931;SDS011;36257;46.052;12.540;2022-11-11T11:14:05;3.25;;;2.30;;
40931;SDS011;36257;46.052;12.540;2022-11-11T11:16:41;4.40;;;2.60;;
40931;SDS011;36257;46.052;12.540;2022-11-11T11:19:25;2.95;;;2.33;;
40931;SDS011;36257;46.052;12.540;2022-11-11T11:21:55;4.05;;;2.20;;
40931;SDS011;36257;46.052;12.540;2022-11-11T11:24:26;3.15;;;2.42;;
40931;SDS011;36257;46.052;12.540;2022-11-11T11:26:55;6.30;;;2.75;;
40931;SDS011;36257;46.052;12.540;2022-11-11T11:29:26;3.22;;;2.90;;
40931;SDS011;36257;46.052;12.540;2022-11-11T11:31:57;4.65;;;2.90;;
40931;SDS011;36257;46.052;12.540;2022-11-11T11:37:10;5.03;;;2.40;;
40931;SDS011;36257;46.052;12.540;2022-11-11T11:39:37;3.72;;;3.00;;
40931;SDS011;36257;46.052;12.540;2022-11-11T11:42:04;4.18;;;2.83;;
40931;SDS011;36257;46.052;12.540;2022-11-11T11:44:34;6.30;;;3.00;;
40931;SDS011;36257;46.052;12.540;2022-11-11T11:47:05;7.10;;;3.58;;
40931;SDS011;36257;46.052;12.540;2022-11-11T11:49:51;5.25;;;3.40;;
40931;SDS011;36257;46.052;12.540;2022-11-11T11:55:31;6.07;;;3.17;;
40931;SDS011;36257;46.052;12.540;2022-11-11T12:12:08;4.55;;;3.08;;
40931;SDS011;36257;46.052;12.540;2022-11-11T12:21:00;4.93;;;2.92;;
40931;SDS011;36257;46.052;12.540;2022-11-11T12:23:58;27.95;;;5.82;;
40931;SDS011;36257;46.052;12.540;2022-11-11T12:27:00;6.15;;;3.13;;
40931;SDS011;36257;46.052;12.540;2022-11-11T12:49:26;2.95;;;1.90;;
40931;SDS011;36257;46.052;12.540;2022-11-11T12:54:33;3.72;;;2.10;;
40931;SDS011;36257;46.052;12.540;2022-11-11T12:57:24;5.55;;;2.45;;
40931;SDS011;36257;46.052;12.540;2022-11-11T13:00:03;3.30;;;2.25;;
40931;SDS011;36257;46.052;12.540;2022-11-11T13:05:19;6.93;;;2.17;;
40931;SDS011;36257;46.052;12.540;2022-11-11T13:16:37;2.60;;;2.40;;
40931;SDS011;36257;46.052;12.540;2022-11-11T13:19:12;4.57;;;2.38;;
40931;SDS011;36257;46.052;12.540;2022-11-11T13:21:54;2.58;;;2.38;;
40931;SDS011;36257;46.052;12.540;2022-11-11T13:24:32;3.00;;;2.13;;
40931;SDS011;36257;46.052;12.540;2022-11-11T13:31:59;3.72;;;1.88;;
40931;SDS011;36257;46.052;12.540;2022-11-11T13:34:29;1.98;;;1.63;;
40931;SDS011;36257;46.052;12.540;2022-11-11T13:36:59;3.88;;;2.22;;
40931;SDS011;36257;46.052;12.540;2022-11-11T13:39:33;4.35;;;2.65;;
40931;SDS011;36257;46.052;12.540;2022-11-11T13:42:04;2.47;;;2.28;;
40931;SDS011;36257;46.052;12.540;2022-11-11T13:44:37;5.95;;;2.72;;
40931;SDS011;36257;46.052;12.540;2022-11-11T13:47:23;4.85;;;2.53;;
40931;SDS011;36257;46.052;12.540;2022-11-11T13:50:20;6.15;;;3.17;;
40931;SDS011;36257;46.052;12.540;2022-11-11T13:55:23;6.10;;;2.60;;
40931;SDS011;36257;46.052;12.540;2022-11-11T13:57:57;2.97;;;2.33;;
40931;SDS011;36257;46.052;12.540;2022-11-11T14:00:25;3.08;;;2.63;;
40931;SDS011;36257;46.052;12.540;2022-11-11T14:05:41;4.22;;;2.30;;
40931;SDS011;36257;46.052;12.540;2022-11-11T14:08:07;7.35;;;3.35;;
40931;SDS011;36257;46.052;12.540;2022-11-11T14:15:50;5.18;;;2.88;;
40931;SDS011;36257;46.052;12.540;2022-11-11T14:25:45;6.80;;;3.08;;
40931;SDS011;36257;46.052;12.540;2022-11-11T14:28:23;5.35;;;3.03;;
40931;SDS011;36257;46.052;12.540;2022-11-11T14:30:54;4.22;;;3.22;;
40931;SDS011;36257;46.052;12.540;2022-11-11T14:35:56;4.28;;;3.22;;
40931;SDS011;36257;46.052;12.540;2022-11-11T14:52:23;6.37;;;3.47;;
40931;SDS011;36257;46.052;12.540;2022-11-11T14:57:28;4.05;;;3.53;;
40931;SDS011;36257;46.052;12.540;2022-11-11T15:00:15;4.93;;;4.22;;
40931;SDS011;36257;46.052;12.540;2022-11-11T15:02:52;3.42;;;3.00;;
40931;SDS011;36257;46.052;12.540;2022-11-11T15:06:09;5.78;;;2.90;;
40931;SDS011;36257;46.052;12.540;2022-11-11T15:13:43;4.97;;;2.40;;
40931;SDS011;36257;46.052;12.540;2022-11-11T15:30:20;4.35;;;3.40;;
40931;SDS011;36257;46.052;12.540;2022-11-11T15:35:45;17.75;;;11.25;;
40931;SDS011;36257;46.052;12.540;2022-11-11T15:40:55;12.00;;;10.13;;
40931;SDS011;36257;46.052;12.540;2022-11-11T15:43:27;5.45;;;4.15;;
40931;SDS011;36257;46.052;12.540;2022-11-11T15:45:57;5.05;;;3.15;;
40931;SDS011;36257;46.052;12.540;2022-11-11T15:48:26;3.97;;;2.88;;
40931;SDS011;36257;46.052;12.540;2022-11-11T15:51:22;4.80;;;2.70;;
40931;SDS011;36257;46.052;12.540;2022-11-11T15:54:08;3.88;;;2.92;;
40931;SDS011;36257;46.052;12.540;2022-11-11T15:56:35;8.48;;;7.60;;
40931;SDS011;36257;46.052;12.540;2022-11-11T15:59:15;9.02;;;7.90;;
40931;SDS011;36257;46.052;12.540;2022-11-11T16:01:42;12.32;;;10.30;;
40931;SDS011;36257;46.052;12.540;2022-11-11T16:04:08;10.90;;;8.30;;
40931;SDS011;36257;46.052;12.540;2022-11-11T16:06:38;8.70;;;5.63;;
40931;SDS011;36257;46.052;12.540;2022-11-11T16:09:04;4.22;;;3.92;;
40931;SDS011;36257;46.052;12.540;2022-11-11T16:11:34;6.03;;;4.20;;
40931;SDS011;36257;46.052;12.540;2022-11-11T16:14:03;10.65;;;8.00;;
40931;SDS011;36257;46.052;12.540;2022-11-11T16:16:30;7.32;;;6.50;;
40931;SDS011;36257;46.052;12.540;2022-11-11T16:19:05;6.55;;;5.35;;
40931;SDS011;36257;46.052;12.540;2022-11-11T16:21:53;7.25;;;5.65;;
40931;SDS011;36257;46.052;12.540;2022-11-11T16:24:22;6.90;;;5.05;;
40931;SDS011;36257;46.052;12.540;2022-11-11T16:26:52;5.53;;;4.55;;
40931;SDS011;36257;46.052;12.540;2022-11-11T16:29:19;4.50;;;4.10;;
40931;SDS011;36257;46.052;12.540;2022-11-11T16:31:48;2.28;;;2.08;;
40931;SDS011;36257;46.052;12.540;2022-11-11T16:37:05;4.60;;;3.92;;
40931;SDS011;36257;46.052;12.540;2022-11-11T16:39:32;3.72;;;3.25;;
40931;SDS011;36257;46.052;12.540;2022-11-11T16:42:00;3.42;;;3.13;;
40931;SDS011;36257;46.052;12.540;2022-11-11T16:47:05;6.03;;;5.05;;
40931;SDS011;36257;46.052;12.540;2022-11-11T16:53:04;4.00;;;3.70;;
40931;SDS011;36257;46.052;12.540;2022-11-11T16:55:38;4.85;;;3.10;;
40931;SDS011;36257;46.052;12.540;2022-11-11T16:58:10;4.30;;;3.90;;
40931;SDS011;36257;46.052;12.540;2022-11-11T17:00:40;3.92;;;3.47;;
40931;SDS011;36257;46.052;12.540;2022-11-11T17:03:09;3.28;;;2.22;;
40931;SDS011;36257;46.052;12.540;2022-11-11T17:06:00;4.05;;;3.67;;
40931;SDS011;36257;46.052;12.540;2022-11-11T17:08:35;3.97;;;3.67;;
40931;SDS011;36257;46.052;12.540;2022-11-11T17:11:04;3.05;;;2.85;;
40931;SDS011;36257;46.052;12.540;2022-11-11T17:13:36;3.25;;;2.95;;
40931;SDS011;36257;46.052;12.540;2022-11-11T17:16:05;5.32;;;3.30;;
40931;SDS011;36257;46.052;12.540;2022-11-11T17:18:36;2.80;;;2.58;;
40931;SDS011;36257;46.052;12.540;2022-11-11T17:21:03;2.80;;;2.60;;
40931;SDS011;36257;46.052;12.540;2022-11-11T17:23:29;2.95;;;2.72;;
40931;SDS011;36257;46.052;12.540;2022-11-11T17:25:56;5.18;;;4.30;;
40931;SDS011;36257;46.052;12.540;2022-11-11T17:28:24;11.43;;;8.75;;
40931;SDS011;36257;46.052;12.540;2022-11-11T17:30:51;10.43;;;8.57;;
40931;SDS011;36257;46.052;12.540;2022-11-11T17:33:17;13.85;;;9.00;;
40931;SDS011;36257;46.052;12.540;2022-11-11T17:35:52;10.88;;;8.02;;
40931;SDS011;36257;46.052;12.540;2022-11-11T17:38:18;7.10;;;6.20;;
40931;SDS011;36257;46.052;12.540;2022-11-11T17:40:45;7.55;;;6.85;;
40931;SDS011;36257;46.052;12.540;2022-11-11T17:43:11;7.70;;;5.70;;
40931;SDS011;36257;46.052;12.540;2022-11-11T17:45:38;4.30;;;3.50;;
40931;SDS011;36257;46.052;12.540;2022-11-11T17:48:04;5.15;;;4.65;;
40931;SDS011;36257;46.052;12.540;2022-11-11T17:50:30;5.28;;;4.53;;
40931;SDS011;36257;46.052;12.540;2022-11-11T17:52:56;3.00;;;2.80;;